sensor_id;sensor_type;location;lat;lon;timestamp;P1;durP1;ratioP1;P2;durP2;ratioP2
5608;SDS011;2826;51.354;9.588;2023-03-12T00:00:44;5.77;;;2.53;;
5608;SDS011;2826;51.354;9.588;2023-03-12T00:03:11;4.27;;;2.77;;
5608;SDS011;2826;51.354;9.588;2023-03-12T00:05:39;7.93;;;3.07;;
5608;SDS011;2826;51.354;9.588;2023-03-12T00:08:06;4.23;;;2.30;;
5608;SDS011;2826;51.354;9.588;2023-03-12T00:10:34;8.70;;;2.57;;
5608;SDS011;2826;51.354;9.588;2023-03-12T00:13:03;5.90;;;2.63;;
5608;SDS011;2826;51.354;9.588;2023-03-12T00:15:29;2.77;;;2.00;;
5608;SDS011;2826;51.354;9.588;2023-03-12T00:17:56;6.77;;;2.10;;
5608;SDS011;2826;51.354;9.588;2023-03-12T00:20:23;4.70;;;2.33;;
5608;SDS011;2826;51.354;9.588;2023-03-12T00:22:51;4.53;;;2.30;;
5608;SDS011;2826;51.354;9.588;2023-03-12T00:25:18;8.23;;;2.50;;
5608;SDS011;2826;51.354;9.588;2023-03-12T00:27:45;9.43;;;2.50;;
5608;SDS011;2826;51.354;9.588;2023-03-12T00:30:12;3.23;;;2.23;;
5608;SDS011;2826;51.354;9.588;2023-03-12T00:32:38;3.47;;;2.40;;
5608;SDS011;2826;51.354;9.588;2023-03-12T00:35:05;13.03;;;5.60;;
5608;SDS011;2826;51.354;9.588;2023-03-12T00:37:33;7.03;;;3.60;;
5608;SDS011;2826;51.354;9.588;2023-03-12T00:40:01;5.60;;;3.10;;
5608;SDS011;2826;51.354;9.588;2023-03-12T00:42:30;5.90;;;2.30;;
5608;SDS011;2826;51.354;9.588;2023-03-12T00:44:57;3.37;;;2.40;;
5608;SDS011;2826;51.354;9.588;2023-03-12T00:47:24;6.23;;;2.20;;
5608;SDS011;2826;51.354;9.588;2023-03-12T00:49:50;5.70;;;2.47;;
5608;SDS011;2826;51.354;9.588;2023-03-12T00:52:17;7.47;;;2.80;;
5608;SDS011;2826;51.354;9.588;2023-03-12T00:54:44;4.20;;;2.60;;
5608;SDS011;2826;51.354;9.588;2023-03-12T00:57:12;4.37;;;2.57;;
5608;SDS011;2826;51.354;9.588;2023-03-12T00:59:38;4.40;;;2.60;;
5608;SDS011;2826;51.354;9.588;2023-03-12T01:02:06;5.00;;;2.10;;
5608;SDS011;2826;51.354;9.588;2023-03-12T01:04:33;4.47;;;2.47;;
5608;SDS011;2826;51.354;9.588;2023-03-12T01:07:00;3.07;;;2.43;;
5608;SDS011;2826;51.354;9.588;2023-03-12T01:09:27;3.57;;;1.97;;
5608;SDS011;2826;51.354;9.588;2023-03-12T01:11:53;7.60;;;2.50;;
5608;SDS011;2826;51.354;9.588;2023-03-12T01:14:22;2.90;;;1.77;;
5608;SDS011;2826;51.354;9.588;2023-03-12T01:16:48;3.10;;;1.93;;
5608;SDS011;2826;51.354;9.588;2023-03-12T01:19:15;3.10;;;1.80;;
5608;SDS011;2826;51.354;9.588;2023-03-12T01:21:42;2.60;;;1.63;;
5608;SDS011;2826;51.354;9.588;2023-03-12T01:24:08;3.13;;;2.17;;
5608;SDS011;2826;51.354;9.588;2023-03-12T01:26:36;3.00;;;2.03;;
5608;SDS011;2826;51.354;9.588;2023-03-12T01:29:03;3.00;;;2.03;;
5608;SDS011;2826;51.354;9.588;2023-03-12T01:31:30;3.87;;;2.00;;
5608;SDS011;2826;51.354;9.588;2023-03-12T01:33:57;4.90;;;2.13;;
5608;SDS011;2826;51.354;9.588;2023-03-12T01:36:24;4.17;;;2.27;;
5608;SDS011;2826;51.354;9.588;2023-03-12T01:38:52;3.43;;;2.07;;
5608;SDS011;2826;51.354;9.588;2023-03-12T01:41:21;5.90;;;1.93;;
5608;SDS011;2826;51.354;9.588;2023-03-12T01:43:50;8.43;;;2.30;;
5608;SDS011;2826;51.354;9.588;2023-03-12T01:46:21;2.90;;;2.27;;
5608;SDS011;2826;51.354;9.588;2023-03-12T01:48:55;2.90;;;2.10;;
5608;SDS011;2826;51.354;9.588;2023-03-12T01:51:26;9.03;;;2.33;;
5608;SDS011;2826;51.354;9.588;2023-03-12T01:53:57;9.03;;;2.30;;
5608;SDS011;2826;51.354;9.588;2023-03-12T01:56:31;3.47;;;2.17;;
5608;SDS011;2826;51.354;9.588;2023-03-12T01:59:01;4.50;;;2.30;;
5608;SDS011;2826;51.354;9.588;2023-03-12T02:01:32;8.87;;;3.70;;
5608;SDS011;2826;51.354;9.588;2023-03-12T02:04:00;8.20;;;2.93;;
5608;SDS011;2826;51.354;9.588;2023-03-12T02:06:28;6.53;;;2.60;;
5608;SDS011;2826;51.354;9.588;2023-03-12T02:09:00;5.33;;;2.53;;
5608;SDS011;2826;51.354;9.588;2023-03-12T02:11:28;3.30;;;2.13;;
5608;SDS011;2826;51.354;9.588;2023-03-12T02:13:55;5.77;;;2.57;;
5608;SDS011;2826;51.354;9.588;2023-03-12T02:16:23;4.80;;;1.90;;
5608;SDS011;2826;51.354;9.588;2023-03-12T02:18:50;4.60;;;2.17;;
5608;SDS011;2826;51.354;9.588;2023-03-12T02:21:22;7.33;;;2.70;;
5608;SDS011;2826;51.354;9.588;2023-03-12T02:23:54;3.57;;;2.43;;
5608;SDS011;2826;51.354;9.588;2023-03-12T02:26:30;3.63;;;2.20;;
5608;SDS011;2826;51.354;9.588;2023-03-12T02:28:59;5.13;;;2.13;;
5608;SDS011;2826;51.354;9.588;2023-03-12T02:31:27;4.00;;;2.50;;
5608;SDS011;2826;51.354;9.588;2023-03-12T02:33:58;4.47;;;2.60;;
5608;SDS011;2826;51.354;9.588;2023-03-12T02:36:25;4.30;;;2.70;;
5608;SDS011;2826;51.354;9.588;2023-03-12T02:38:52;6.80;;;2.37;;
5608;SDS011;2826;51.354;9.588;2023-03-12T02:41:21;6.60;;;2.53;;
5608;SDS011;2826;51.354;9.588;2023-03-12T02:43:54;6.70;;;3.10;;
5608;SDS011;2826;51.354;9.588;2023-03-12T02:46:24;5.67;;;2.83;;
5608;SDS011;2826;51.354;9.588;2023-03-12T02:48:52;5.77;;;2.77;;
5608;SDS011;2826;51.354;9.588;2023-03-12T02:51:19;7.00;;;2.70;;
5608;SDS011;2826;51.354;9.588;2023-03-12T02:53:46;6.27;;;3.50;;
5608;SDS011;2826;51.354;9.588;2023-03-12T02:56:14;15.77;;;4.57;;
5608;SDS011;2826;51.354;9.588;2023-03-12T02:58:40;10.20;;;4.50;;
5608;SDS011;2826;51.354;9.588;2023-03-12T03:01:11;11.13;;;5.20;;
5608;SDS011;2826;51.354;9.588;2023-03-12T03:03:37;14.70;;;5.30;;
5608;SDS011;2826;51.354;9.588;2023-03-12T03:06:04;7.87;;;3.87;;
5608;SDS011;2826;51.354;9.588;2023-03-12T03:08:31;5.23;;;2.43;;
5608;SDS011;2826;51.354;9.588;2023-03-12T03:10:58;6.13;;;2.40;;
5608;SDS011;2826;51.354;9.588;2023-03-12T03:13:27;2.30;;;2.10;;
5608;SDS011;2826;51.354;9.588;2023-03-12T03:15:53;6.90;;;2.60;;
5608;SDS011;2826;51.354;9.588;2023-03-12T03:18:23;2.97;;;1.90;;
5608;SDS011;2826;51.354;9.588;2023-03-12T03:20:53;4.30;;;2.20;;
5608;SDS011;2826;51.354;9.588;2023-03-12T03:23:21;7.43;;;2.60;;
5608;SDS011;2826;51.354;9.588;2023-03-12T03:25:47;5.23;;;2.10;;
5608;SDS011;2826;51.354;9.588;2023-03-12T03:28:13;3.17;;;2.10;;
5608;SDS011;2826;51.354;9.588;2023-03-12T03:30:40;13.73;;;2.17;;
5608;SDS011;2826;51.354;9.588;2023-03-12T03:33:07;4.20;;;2.70;;
5608;SDS011;2826;51.354;9.588;2023-03-12T03:35:35;4.30;;;2.43;;
5608;SDS011;2826;51.354;9.588;2023-03-12T03:38:02;2.57;;;2.00;;
5608;SDS011;2826;51.354;9.588;2023-03-12T03:40:29;2.90;;;2.00;;
5608;SDS011;2826;51.354;9.588;2023-03-12T03:42:57;2.23;;;1.77;;
5608;SDS011;2826;51.354;9.588;2023-03-12T03:45:24;10.03;;;2.93;;
5608;SDS011;2826;51.354;9.588;2023-03-12T03:47:52;10.07;;;2.40;;
5608;SDS011;2826;51.354;9.588;2023-03-12T03:50:19;3.80;;;2.17;;
5608;SDS011;2826;51.354;9.588;2023-03-12T03:52:47;4.43;;;2.20;;
5608;SDS011;2826;51.354;9.588;2023-03-12T03:55:14;3.07;;;2.20;;
5608;SDS011;2826;51.354;9.588;2023-03-12T03:57:41;3.40;;;2.00;;
5608;SDS011;2826;51.354;9.588;2023-03-12T04:00:10;2.67;;;1.90;;
5608;SDS011;2826;51.354;9.588;2023-03-12T04:02:40;5.00;;;2.60;;
5608;SDS011;2826;51.354;9.588;2023-03-12T04:05:10;4.70;;;2.53;;
5608;SDS011;2826;51.354;9.588;2023-03-12T04:07:37;4.00;;;2.53;;
5608;SDS011;2826;51.354;9.588;2023-03-12T04:10:05;5.63;;;2.80;;
5608;SDS011;2826;51.354;9.588;2023-03-12T04:12:33;3.60;;;2.13;;
5608;SDS011;2826;51.354;9.588;2023-03-12T04:15:00;4.17;;;2.50;;
5608;SDS011;2826;51.354;9.588;2023-03-12T04:17:27;6.20;;;2.40;;
5608;SDS011;2826;51.354;9.588;2023-03-12T04:19:55;2.53;;;1.90;;
5608;SDS011;2826;51.354;9.588;2023-03-12T04:22:22;4.83;;;2.37;;
5608;SDS011;2826;51.354;9.588;2023-03-12T04:24:49;5.03;;;2.20;;
5608;SDS011;2826;51.354;9.588;2023-03-12T04:27:17;5.70;;;2.87;;
5608;SDS011;2826;51.354;9.588;2023-03-12T04:29:43;4.10;;;2.30;;
5608;SDS011;2826;51.354;9.588;2023-03-12T04:32:10;6.60;;;2.43;;
5608;SDS011;2826;51.354;9.588;2023-03-12T04:34:37;2.50;;;1.90;;
5608;SDS011;2826;51.354;9.588;2023-03-12T04:37:04;6.17;;;2.33;;
5608;SDS011;2826;51.354;9.588;2023-03-12T04:39:30;1.70;;;1.60;;
5608;SDS011;2826;51.354;9.588;2023-03-12T04:41:57;3.10;;;1.93;;
5608;SDS011;2826;51.354;9.588;2023-03-12T04:44:26;4.07;;;2.23;;
5608;SDS011;2826;51.354;9.588;2023-03-12T04:46:53;4.57;;;2.03;;
5608;SDS011;2826;51.354;9.588;2023-03-12T04:49:23;8.20;;;2.20;;
5608;SDS011;2826;51.354;9.588;2023-03-12T04:51:51;3.58;;;1.85;;
5608;SDS011;2826;51.354;9.588;2023-03-12T04:54:19;3.43;;;1.80;;
5608;SDS011;2826;51.354;9.588;2023-03-12T04:56:47;4.87;;;1.90;;
5608;SDS011;2826;51.354;9.588;2023-03-12T04:59:14;2.60;;;1.93;;
5608;SDS011;2826;51.354;9.588;2023-03-12T05:01:43;3.43;;;2.20;;
5608;SDS011;2826;51.354;9.588;2023-03-12T05:04:16;2.70;;;1.80;;
5608;SDS011;2826;51.354;9.588;2023-03-12T05:06:43;1.83;;;1.57;;
5608;SDS011;2826;51.354;9.588;2023-03-12T05:09:10;4.83;;;2.07;;
5608;SDS011;2826;51.354;9.588;2023-03-12T05:11:37;4.93;;;1.93;;
5608;SDS011;2826;51.354;9.588;2023-03-12T05:14:04;2.73;;;2.00;;
5608;SDS011;2826;51.354;9.588;2023-03-12T05:16:31;4.73;;;1.90;;
5608;SDS011;2826;51.354;9.588;2023-03-12T05:18:59;2.70;;;1.90;;
5608;SDS011;2826;51.354;9.588;2023-03-12T05:21:26;6.40;;;2.17;;
5608;SDS011;2826;51.354;9.588;2023-03-12T05:23:55;9.13;;;2.03;;
5608;SDS011;2826;51.354;9.588;2023-03-12T05:26:24;6.50;;;1.90;;
5608;SDS011;2826;51.354;9.588;2023-03-12T05:29:00;2.60;;;1.83;;
5608;SDS011;2826;51.354;9.588;2023-03-12T05:31:28;2.23;;;1.50;;
5608;SDS011;2826;51.354;9.588;2023-03-12T05:33:59;2.27;;;1.60;;
5608;SDS011;2826;51.354;9.588;2023-03-12T05:36:26;2.03;;;1.73;;
5608;SDS011;2826;51.354;9.588;2023-03-12T05:38:54;9.70;;;1.90;;
5608;SDS011;2826;51.354;9.588;2023-03-12T05:41:22;4.40;;;2.17;;
5608;SDS011;2826;51.354;9.588;2023-03-12T05:43:54;5.93;;;1.80;;
5608;SDS011;2826;51.354;9.588;2023-03-12T05:46:22;4.60;;;1.53;;
5608;SDS011;2826;51.354;9.588;2023-03-12T05:48:49;3.30;;;2.10;;
5608;SDS011;2826;51.354;9.588;2023-03-12T05:51:18;1.50;;;1.40;;
5608;SDS011;2826;51.354;9.588;2023-03-12T05:53:45;6.17;;;2.00;;
5608;SDS011;2826;51.354;9.588;2023-03-12T05:56:14;4.63;;;1.83;;
5608;SDS011;2826;51.354;9.588;2023-03-12T05:58:42;5.20;;;1.93;;
5608;SDS011;2826;51.354;9.588;2023-03-12T06:01:10;5.33;;;2.43;;
5608;SDS011;2826;51.354;9.588;2023-03-12T06:03:38;5.33;;;2.37;;
5608;SDS011;2826;51.354;9.588;2023-03-12T06:06:07;9.03;;;2.07;;
5608;SDS011;2826;51.354;9.588;2023-03-12T06:08:43;6.33;;;2.43;;
5608;SDS011;2826;51.354;9.588;2023-03-12T06:11:11;4.40;;;2.23;;
5608;SDS011;2826;51.354;9.588;2023-03-12T06:13:38;5.30;;;2.00;;
5608;SDS011;2826;51.354;9.588;2023-03-12T06:16:05;5.40;;;2.20;;
5608;SDS011;2826;51.354;9.588;2023-03-12T06:18:34;2.10;;;1.70;;
5608;SDS011;2826;51.354;9.588;2023-03-12T06:21:11;4.57;;;1.90;;
5608;SDS011;2826;51.354;9.588;2023-03-12T06:23:39;3.17;;;1.93;;
5608;SDS011;2826;51.354;9.588;2023-03-12T06:26:10;4.30;;;2.20;;
5608;SDS011;2826;51.354;9.588;2023-03-12T06:28:37;3.30;;;1.90;;
5608;SDS011;2826;51.354;9.588;2023-03-12T06:31:04;5.30;;;2.40;;
5608;SDS011;2826;51.354;9.588;2023-03-12T06:33:32;4.90;;;2.13;;
5608;SDS011;2826;51.354;9.588;2023-03-12T06:36:00;4.67;;;1.73;;
5608;SDS011;2826;51.354;9.588;2023-03-12T06:38:28;5.00;;;2.10;;
5608;SDS011;2826;51.354;9.588;2023-03-12T06:40:55;8.30;;;2.30;;
5608;SDS011;2826;51.354;9.588;2023-03-12T06:43:24;7.30;;;2.13;;
5608;SDS011;2826;51.354;9.588;2023-03-12T06:45:53;4.00;;;2.03;;
5608;SDS011;2826;51.354;9.588;2023-03-12T06:48:21;9.30;;;2.60;;
5608;SDS011;2826;51.354;9.588;2023-03-12T06:50:48;3.57;;;1.87;;
5608;SDS011;2826;51.354;9.588;2023-03-12T06:53:15;3.60;;;2.13;;
5608;SDS011;2826;51.354;9.588;2023-03-12T06:55:41;2.83;;;1.73;;
5608;SDS011;2826;51.354;9.588;2023-03-12T06:58:08;3.97;;;2.37;;
5608;SDS011;2826;51.354;9.588;2023-03-12T07:00:36;2.20;;;1.70;;
5608;SDS011;2826;51.354;9.588;2023-03-12T07:03:02;2.60;;;1.83;;
5608;SDS011;2826;51.354;9.588;2023-03-12T07:05:30;4.37;;;1.90;;
5608;SDS011;2826;51.354;9.588;2023-03-12T07:07:56;3.23;;;2.13;;
5608;SDS011;2826;51.354;9.588;2023-03-12T07:10:23;7.20;;;1.90;;
5608;SDS011;2826;51.354;9.588;2023-03-12T07:12:52;6.70;;;1.87;;
5608;SDS011;2826;51.354;9.588;2023-03-12T07:15:19;4.97;;;2.10;;
5608;SDS011;2826;51.354;9.588;2023-03-12T07:17:47;1.87;;;1.73;;
5608;SDS011;2826;51.354;9.588;2023-03-12T07:20:14;5.97;;;2.37;;
5608;SDS011;2826;51.354;9.588;2023-03-12T07:22:41;8.33;;;3.10;;
5608;SDS011;2826;51.354;9.588;2023-03-12T07:25:08;5.30;;;2.23;;
5608;SDS011;2826;51.354;9.588;2023-03-12T07:27:34;3.57;;;1.90;;
5608;SDS011;2826;51.354;9.588;2023-03-12T07:30:01;2.03;;;1.83;;
5608;SDS011;2826;51.354;9.588;2023-03-12T07:32:30;2.37;;;1.63;;
5608;SDS011;2826;51.354;9.588;2023-03-12T07:34:58;5.70;;;2.10;;
5608;SDS011;2826;51.354;9.588;2023-03-12T07:37:25;9.53;;;2.53;;
5608;SDS011;2826;51.354;9.588;2023-03-12T07:39:51;4.50;;;2.30;;
5608;SDS011;2826;51.354;9.588;2023-03-12T07:42:22;2.60;;;1.47;;
5608;SDS011;2826;51.354;9.588;2023-03-12T07:44:54;4.33;;;2.03;;
5608;SDS011;2826;51.354;9.588;2023-03-12T07:47:21;9.80;;;1.80;;
5608;SDS011;2826;51.354;9.588;2023-03-12T07:49:47;3.30;;;2.00;;
5608;SDS011;2826;51.354;9.588;2023-03-12T07:52:15;13.17;;;2.43;;
5608;SDS011;2826;51.354;9.588;2023-03-12T07:54:44;4.13;;;2.00;;
5608;SDS011;2826;51.354;9.588;2023-03-12T07:57:10;4.30;;;1.50;;
5608;SDS011;2826;51.354;9.588;2023-03-12T07:59:37;3.67;;;1.53;;
5608;SDS011;2826;51.354;9.588;2023-03-12T08:02:04;2.73;;;1.40;;
5608;SDS011;2826;51.354;9.588;2023-03-12T08:04:30;2.33;;;1.77;;
5608;SDS011;2826;51.354;9.588;2023-03-12T08:06:56;3.20;;;2.20;;
5608;SDS011;2826;51.354;9.588;2023-03-12T08:09:24;5.53;;;2.27;;
5608;SDS011;2826;51.354;9.588;2023-03-12T08:11:51;5.53;;;2.00;;
5608;SDS011;2826;51.354;9.588;2023-03-12T08:14:18;6.47;;;1.97;;
5608;SDS011;2826;51.354;9.588;2023-03-12T08:16:44;6.40;;;2.10;;
5608;SDS011;2826;51.354;9.588;2023-03-12T08:19:11;6.57;;;2.40;;
5608;SDS011;2826;51.354;9.588;2023-03-12T08:21:37;3.90;;;2.13;;
5608;SDS011;2826;51.354;9.588;2023-03-12T08:24:04;6.60;;;2.80;;
5608;SDS011;2826;51.354;9.588;2023-03-12T08:26:32;4.50;;;2.40;;
5608;SDS011;2826;51.354;9.588;2023-03-12T08:28:59;7.70;;;2.57;;
5608;SDS011;2826;51.354;9.588;2023-03-12T08:31:26;3.30;;;2.10;;
5608;SDS011;2826;51.354;9.588;2023-03-12T08:33:53;5.10;;;2.83;;
5608;SDS011;2826;51.354;9.588;2023-03-12T08:36:20;6.03;;;2.30;;
5608;SDS011;2826;51.354;9.588;2023-03-12T08:38:46;8.80;;;3.40;;
5608;SDS011;2826;51.354;9.588;2023-03-12T08:41:13;10.43;;;3.90;;
5608;SDS011;2826;51.354;9.588;2023-03-12T08:43:41;7.87;;;2.80;;
5608;SDS011;2826;51.354;9.588;2023-03-12T08:46:07;10.00;;;3.00;;
5608;SDS011;2826;51.354;9.588;2023-03-12T08:48:34;3.27;;;1.90;;
5608;SDS011;2826;51.354;9.588;2023-03-12T08:51:01;6.97;;;3.30;;
5608;SDS011;2826;51.354;9.588;2023-03-12T08:53:28;5.20;;;2.43;;
5608;SDS011;2826;51.354;9.588;2023-03-12T08:55:56;15.90;;;3.03;;
5608;SDS011;2826;51.354;9.588;2023-03-12T08:58:23;7.37;;;3.10;;
5608;SDS011;2826;51.354;9.588;2023-03-12T09:00:52;4.73;;;2.67;;
5608;SDS011;2826;51.354;9.588;2023-03-12T09:03:20;4.50;;;2.17;;
5608;SDS011;2826;51.354;9.588;2023-03-12T09:05:47;6.60;;;2.03;;
5608;SDS011;2826;51.354;9.588;2023-03-12T09:08:15;5.60;;;2.00;;
5608;SDS011;2826;51.354;9.588;2023-03-12T09:10:46;5.80;;;2.47;;
5608;SDS011;2826;51.354;9.588;2023-03-12T09:13:14;5.30;;;1.87;;
5608;SDS011;2826;51.354;9.588;2023-03-12T09:15:41;10.70;;;2.73;;
5608;SDS011;2826;51.354;9.588;2023-03-12T09:18:08;6.93;;;2.60;;
5608;SDS011;2826;51.354;9.588;2023-03-12T09:20:35;5.27;;;2.10;;
5608;SDS011;2826;51.354;9.588;2023-03-12T09:23:02;4.37;;;2.30;;
5608;SDS011;2826;51.354;9.588;2023-03-12T09:25:28;2.43;;;2.20;;
5608;SDS011;2826;51.354;9.588;2023-03-12T09:27:55;6.97;;;2.00;;
5608;SDS011;2826;51.354;9.588;2023-03-12T09:30:22;6.80;;;2.40;;
5608;SDS011;2826;51.354;9.588;2023-03-12T09:32:51;1.97;;;1.77;;
5608;SDS011;2826;51.354;9.588;2023-03-12T09:35:20;9.13;;;2.70;;
5608;SDS011;2826;51.354;9.588;2023-03-12T09:37:47;7.93;;;2.07;;
5608;SDS011;2826;51.354;9.588;2023-03-12T09:40:14;6.90;;;2.27;;
5608;SDS011;2826;51.354;9.588;2023-03-12T09:42:44;3.70;;;2.13;;
5608;SDS011;2826;51.354;9.588;2023-03-12T09:45:13;3.33;;;2.27;;
5608;SDS011;2826;51.354;9.588;2023-03-12T09:47:44;14.43;;;2.10;;
5608;SDS011;2826;51.354;9.588;2023-03-12T09:50:16;4.83;;;2.00;;
5608;SDS011;2826;51.354;9.588;2023-03-12T09:52:51;2.30;;;2.00;;
5608;SDS011;2826;51.354;9.588;2023-03-12T09:55:21;7.30;;;1.87;;
5608;SDS011;2826;51.354;9.588;2023-03-12T09:57:48;5.37;;;1.93;;
5608;SDS011;2826;51.354;9.588;2023-03-12T10:00:18;2.83;;;1.73;;
5608;SDS011;2826;51.354;9.588;2023-03-12T10:05:54;3.87;;;2.40;;
5608;SDS011;2826;51.354;9.588;2023-03-12T10:08:34;5.20;;;2.30;;
5608;SDS011;2826;51.354;9.588;2023-03-12T10:11:13;5.43;;;2.60;;
5608;SDS011;2826;51.354;9.588;2023-03-12T10:13:52;3.50;;;2.00;;
5608;SDS011;2826;51.354;9.588;2023-03-12T10:16:33;5.43;;;2.13;;
5608;SDS011;2826;51.354;9.588;2023-03-12T10:19:16;17.67;;;2.40;;
5608;SDS011;2826;51.354;9.588;2023-03-12T10:21:54;7.90;;;2.50;;
5608;SDS011;2826;51.354;9.588;2023-03-12T10:24:29;4.47;;;2.27;;
5608;SDS011;2826;51.354;9.588;2023-03-12T10:27:08;7.53;;;2.73;;
5608;SDS011;2826;51.354;9.588;2023-03-12T10:29:37;7.43;;;2.10;;
5608;SDS011;2826;51.354;9.588;2023-03-12T10:32:07;3.77;;;2.00;;
5608;SDS011;2826;51.354;9.588;2023-03-12T10:34:42;4.37;;;2.20;;
5608;SDS011;2826;51.354;9.588;2023-03-12T10:37:13;6.63;;;2.57;;
5608;SDS011;2826;51.354;9.588;2023-03-12T10:39:43;5.40;;;2.40;;
5608;SDS011;2826;51.354;9.588;2023-03-12T10:42:14;6.43;;;3.00;;
5608;SDS011;2826;51.354;9.588;2023-03-12T10:44:42;12.10;;;3.70;;
5608;SDS011;2826;51.354;9.588;2023-03-12T10:50:11;16.80;;;3.77;;
5608;SDS011;2826;51.354;9.588;2023-03-12T10:52:41;8.03;;;3.50;;
5608;SDS011;2826;51.354;9.588;2023-03-12T10:55:12;9.87;;;3.87;;
5608;SDS011;2826;51.354;9.588;2023-03-12T10:57:46;7.20;;;2.90;;
5608;SDS011;2826;51.354;9.588;2023-03-12T11:00:16;7.00;;;3.57;;
5608;SDS011;2826;51.354;9.588;2023-03-12T11:02:46;7.27;;;3.30;;
5608;SDS011;2826;51.354;9.588;2023-03-12T11:05:23;8.70;;;2.67;;
5608;SDS011;2826;51.354;9.588;2023-03-12T11:07:53;12.70;;;3.13;;
5608;SDS011;2826;51.354;9.588;2023-03-12T11:10:21;4.27;;;3.00;;
5608;SDS011;2826;51.354;9.588;2023-03-12T11:12:53;6.00;;;3.40;;
5608;SDS011;2826;51.354;9.588;2023-03-12T11:15:23;5.40;;;3.33;;
5608;SDS011;2826;51.354;9.588;2023-03-12T11:17:57;10.80;;;4.73;;
5608;SDS011;2826;51.354;9.588;2023-03-12T11:20:43;12.10;;;4.80;;
5608;SDS011;2826;51.354;9.588;2023-03-12T11:23:13;9.70;;;3.10;;
5608;SDS011;2826;51.354;9.588;2023-03-12T11:25:41;5.73;;;3.17;;
5608;SDS011;2826;51.354;9.588;2023-03-12T11:28:11;8.20;;;2.87;;
5608;SDS011;2826;51.354;9.588;2023-03-12T11:30:45;10.67;;;3.60;;
5608;SDS011;2826;51.354;9.588;2023-03-12T11:33:14;9.50;;;2.93;;
5608;SDS011;2826;51.354;9.588;2023-03-12T11:35:44;8.50;;;3.67;;
5608;SDS011;2826;51.354;9.588;2023-03-12T11:38:19;7.63;;;3.40;;
5608;SDS011;2826;51.354;9.588;2023-03-12T11:40:54;8.73;;;4.23;;
5608;SDS011;2826;51.354;9.588;2023-03-12T11:43:35;11.63;;;5.10;;
5608;SDS011;2826;51.354;9.588;2023-03-12T11:46:15;10.30;;;4.47;;
5608;SDS011;2826;51.354;9.588;2023-03-12T11:48:52;10.47;;;3.93;;
5608;SDS011;2826;51.354;9.588;2023-03-12T11:51:29;10.27;;;4.27;;
5608;SDS011;2826;51.354;9.588;2023-03-12T11:54:08;13.20;;;4.10;;
5608;SDS011;2826;51.354;9.588;2023-03-12T11:56:50;15.90;;;4.50;;
5608;SDS011;2826;51.354;9.588;2023-03-12T11:59:23;15.07;;;4.10;;
5608;SDS011;2826;51.354;9.588;2023-03-12T12:02:11;5.00;;;2.93;;
5608;SDS011;2826;51.354;9.588;2023-03-12T12:04:55;8.80;;;3.60;;
5608;SDS011;2826;51.354;9.588;2023-03-12T12:07:57;11.13;;;3.70;;
5608;SDS011;2826;51.354;9.588;2023-03-12T12:10:36;6.77;;;3.43;;
5608;SDS011;2826;51.354;9.588;2023-03-12T12:13:14;6.80;;;4.10;;
5608;SDS011;2826;51.354;9.588;2023-03-12T12:15:49;12.00;;;4.50;;
5608;SDS011;2826;51.354;9.588;2023-03-12T12:18:32;8.17;;;4.20;;
5608;SDS011;2826;51.354;9.588;2023-03-12T12:21:15;9.10;;;4.77;;
5608;SDS011;2826;51.354;9.588;2023-03-12T12:23:54;11.47;;;5.70;;
5608;SDS011;2826;51.354;9.588;2023-03-12T12:26:32;9.63;;;5.53;;
5608;SDS011;2826;51.354;9.588;2023-03-12T12:29:12;15.83;;;5.30;;
5608;SDS011;2826;51.354;9.588;2023-03-12T12:31:47;8.33;;;4.83;;
5608;SDS011;2826;51.354;9.588;2023-03-12T12:37:27;8.73;;;4.50;;
5608;SDS011;2826;51.354;9.588;2023-03-12T12:40:02;8.27;;;4.50;;
5608;SDS011;2826;51.354;9.588;2023-03-12T12:42:40;12.77;;;5.00;;
5608;SDS011;2826;51.354;9.588;2023-03-12T12:45:14;10.33;;;5.10;;
5608;SDS011;2826;51.354;9.588;2023-03-12T12:47:43;8.27;;;5.23;;
5608;SDS011;2826;51.354;9.588;2023-03-12T12:50:15;10.60;;;5.90;;
5608;SDS011;2826;51.354;9.588;2023-03-12T12:52:45;15.10;;;6.23;;
5608;SDS011;2826;51.354;9.588;2023-03-12T12:55:18;10.33;;;6.10;;
5608;SDS011;2826;51.354;9.588;2023-03-12T12:57:53;19.53;;;6.30;;
5608;SDS011;2826;51.354;9.588;2023-03-12T13:00:32;10.87;;;6.83;;
5608;SDS011;2826;51.354;9.588;2023-03-12T13:03:04;8.27;;;5.97;;
5608;SDS011;2826;51.354;9.588;2023-03-12T13:05:39;18.90;;;8.27;;
5608;SDS011;2826;51.354;9.588;2023-03-12T13:08:30;13.97;;;6.53;;
5608;SDS011;2826;51.354;9.588;2023-03-12T13:11:03;16.57;;;6.10;;
5608;SDS011;2826;51.354;9.588;2023-03-12T13:13:33;10.83;;;6.03;;
5608;SDS011;2826;51.354;9.588;2023-03-12T13:16:16;22.50;;;9.57;;
5608;SDS011;2826;51.354;9.588;2023-03-12T13:18:54;10.30;;;7.30;;
5608;SDS011;2826;51.354;9.588;2023-03-12T13:21:23;9.40;;;6.00;;
5608;SDS011;2826;51.354;9.588;2023-03-12T13:23:57;37.40;;;14.07;;
5608;SDS011;2826;51.354;9.588;2023-03-12T13:26:39;14.93;;;8.30;;
5608;SDS011;2826;51.354;9.588;2023-03-12T13:29:22;7.40;;;5.57;;
5608;SDS011;2826;51.354;9.588;2023-03-12T13:32:01;8.93;;;6.77;;
5608;SDS011;2826;51.354;9.588;2023-03-12T13:37:22;8.70;;;6.17;;
5608;SDS011;2826;51.354;9.588;2023-03-12T13:39:57;10.73;;;7.33;;
5608;SDS011;2826;51.354;9.588;2023-03-12T13:42:36;12.00;;;4.83;;
5608;SDS011;2826;51.354;9.588;2023-03-12T13:47:57;14.10;;;7.23;;
5608;SDS011;2826;51.354;9.588;2023-03-12T13:50:26;9.77;;;7.37;;
5608;SDS011;2826;51.354;9.588;2023-03-12T13:52:59;10.10;;;6.63;;
5608;SDS011;2826;51.354;9.588;2023-03-12T13:55:29;9.90;;;7.43;;
5608;SDS011;2826;51.354;9.588;2023-03-12T13:57:58;13.00;;;7.70;;
5608;SDS011;2826;51.354;9.588;2023-03-12T14:00:35;15.07;;;7.90;;
5608;SDS011;2826;51.354;9.588;2023-03-12T14:03:09;12.27;;;7.33;;
5608;SDS011;2826;51.354;9.588;2023-03-12T14:05:43;11.57;;;6.73;;
5608;SDS011;2826;51.354;9.588;2023-03-12T14:08:16;10.67;;;7.70;;
5608;SDS011;2826;51.354;9.588;2023-03-12T14:11:07;10.90;;;6.47;;
5608;SDS011;2826;51.354;9.588;2023-03-12T14:13:55;7.23;;;5.47;;
5608;SDS011;2826;51.354;9.588;2023-03-12T14:16:42;11.30;;;6.93;;
5608;SDS011;2826;51.354;9.588;2023-03-12T14:19:10;11.83;;;8.53;;
5608;SDS011;2826;51.354;9.588;2023-03-12T14:21:39;12.97;;;8.57;;
5608;SDS011;2826;51.354;9.588;2023-03-12T14:24:13;11.37;;;6.90;;
5608;SDS011;2826;51.354;9.588;2023-03-12T14:26:48;11.17;;;7.70;;
5608;SDS011;2826;51.354;9.588;2023-03-12T14:29:18;10.30;;;6.40;;
5608;SDS011;2826;51.354;9.588;2023-03-12T14:31:48;11.63;;;7.73;;
5608;SDS011;2826;51.354;9.588;2023-03-12T14:34:15;11.63;;;7.40;;
5608;SDS011;2826;51.354;9.588;2023-03-12T14:36:45;8.67;;;6.97;;
5608;SDS011;2826;51.354;9.588;2023-03-12T14:39:18;15.30;;;7.30;;
5608;SDS011;2826;51.354;9.588;2023-03-12T14:41:53;13.60;;;8.67;;
5608;SDS011;2826;51.354;9.588;2023-03-12T14:44:24;11.27;;;7.70;;
5608;SDS011;2826;51.354;9.588;2023-03-12T14:46:58;13.63;;;8.83;;
5608;SDS011;2826;51.354;9.588;2023-03-12T14:49:26;16.23;;;9.77;;
5608;SDS011;2826;51.354;9.588;2023-03-12T14:51:53;13.10;;;9.70;;
5608;SDS011;2826;51.354;9.588;2023-03-12T14:54:21;11.80;;;7.77;;
5608;SDS011;2826;51.354;9.588;2023-03-12T14:56:50;8.87;;;6.70;;
5608;SDS011;2826;51.354;9.588;2023-03-12T14:59:21;9.23;;;6.90;;
5608;SDS011;2826;51.354;9.588;2023-03-12T15:01:52;9.73;;;6.60;;
5608;SDS011;2826;51.354;9.588;2023-03-12T15:04:25;7.60;;;5.27;;
5608;SDS011;2826;51.354;9.588;2023-03-12T15:06:52;13.73;;;7.17;;
5608;SDS011;2826;51.354;9.588;2023-03-12T15:09:24;10.00;;;6.73;;
5608;SDS011;2826;51.354;9.588;2023-03-12T15:11:53;9.73;;;7.17;;
5608;SDS011;2826;51.354;9.588;2023-03-12T15:14:22;10.20;;;7.50;;
5608;SDS011;2826;51.354;9.588;2023-03-12T15:16:51;10.93;;;7.00;;
5608;SDS011;2826;51.354;9.588;2023-03-12T15:19:20;13.90;;;7.33;;
5608;SDS011;2826;51.354;9.588;2023-03-12T15:21:51;8.40;;;5.83;;
5608;SDS011;2826;51.354;9.588;2023-03-12T15:24:18;7.67;;;4.90;;
5608;SDS011;2826;51.354;9.588;2023-03-12T15:26:45;8.57;;;6.37;;
5608;SDS011;2826;51.354;9.588;2023-03-12T15:29:18;8.43;;;4.97;;
5608;SDS011;2826;51.354;9.588;2023-03-12T15:31:51;9.20;;;6.37;;
5608;SDS011;2826;51.354;9.588;2023-03-12T15:34:27;10.00;;;6.83;;
5608;SDS011;2826;51.354;9.588;2023-03-12T15:36:57;8.40;;;5.70;;
5608;SDS011;2826;51.354;9.588;2023-03-12T15:39:25;11.67;;;8.00;;
5608;SDS011;2826;51.354;9.588;2023-03-12T15:41:54;8.57;;;5.77;;
5608;SDS011;2826;51.354;9.588;2023-03-12T15:44:26;9.03;;;5.57;;